Time;durP1;ratioP1;P1;durP2;ratioP2;P2;SDS_P1;SDS_P2;PMS_P1;PMS_P2;Temp;Humidity;BMP_temperature;BMP_pressure;BME280_temperature;BME280_humidity;BME280_pressure;Samples;Min_cycle;Max_cycle;Signal;HPM_P1;HPM_P2
2020/12/11 00:01:35;;;;;;;21.27;13.98;;;;;;;4.11;96.71;99788.22;5048478;28;20048;-71
2020/12/11 00:04:01;;;;;;;17.23;12.85;;;;;;;4.15;96.52;99783.53;5049805;28;20029;-71
2020/12/11 00:06:27;;;;;;;18.98;13.45;;;;;;;4.19;96.21;99792.94;5048603;28;20040;-71
2020/12/11 00:08:52;;;;;;;18.80;13.35;;;;;;;4.33;96.48;99812.25;5050266;28;20047;-71
2020/12/11 00:11:24;;;;;;;18.38;12.85;;;;;;;4.33;96.29;99811.44;5049397;28;20037;-72
2020/12/11 00:13:50;;;;;;;17.20;13.25;;;;;;;4.51;96.44;99848.16;5046615;28;20029;-71
2020/12/11 00:16:15;;;;;;;19.35;13.57;;;;;;;4.48;96.70;99851.00;5046919;28;20407;-70
2020/12/11 00:18:41;;;;;;;19.85;13.55;;;;;;;4.34;96.50;99829.91;5035176;28;20036;-70
2020/12/11 00:21:06;;;;;;;21.48;13.73;;;;;;;4.33;97.16;99828.19;5031896;28;20507;-70
2020/12/11 00:23:32;;;;;;;19.13;13.70;;;;;;;4.38;96.80;99834.03;5031002;28;20067;-71
2020/12/11 00:26:00;;;;;;;24.95;14.73;;;;;;;4.39;97.04;99845.50;5031084;28;20047;-70
2020/12/11 00:28:27;;;;;;;22.30;14.65;;;;;;;4.38;97.34;99838.47;5030098;28;20041;-70
2020/12/11 00:30:54;;;;;;;20.42;13.80;;;;;;;4.36;97.46;99835.09;5035818;28;20140;-70
2020/12/11 00:33:21;;;;;;;20.27;14.30;;;;;;;4.38;96.88;99836.69;5049446;28;20399;-71
2020/12/11 00:35:46;;;;;;;20.83;14.05;;;;;;;4.29;96.75;99815.28;5043207;28;20163;-70
2020/12/11 00:38:12;;;;;;;21.63;13.98;;;;;;;4.22;96.81;99798.06;5030753;28;20129;-71
2020/12/11 00:40:37;;;;;;;19.20;13.55;;;;;;;4.36;96.90;99825.31;5029746;28;20036;-71
2020/12/11 00:43:03;;;;;;;19.92;13.65;;;;;;;4.35;96.85;99830.75;5029546;28;20068;-70
2020/12/11 00:45:28;;;;;;;20.20;14.63;;;;;;;4.33;96.59;99833.50;5030486;28;20052;-70
2020/12/11 00:47:54;;;;;;;20.38;13.98;;;;;;;4.28;97.20;99826.81;5030162;28;20072;-71
2020/12/11 00:50:19;;;;;;;21.23;14.52;;;;;;;4.26;97.37;99829.56;5031095;28;20087;-70
2020/12/11 00:52:45;;;;;;;19.30;14.02;;;;;;;4.29;97.42;99833.84;5030705;28;20029;-71
2020/12/11 00:55:10;;;;;;;21.73;14.73;;;;;;;4.27;97.19;99835.75;5030727;28;20021;-71
2020/12/11 00:57:35;;;;;;;20.20;14.18;;;;;;;3.92;97.33;99768.38;5029176;28;20029;-71
2020/12/11 01:00:03;;;;;;;19.33;13.65;;;;;;;4.20;97.45;99821.22;5029695;28;20036;-71
2020/12/11 01:02:29;;;;;;;21.48;14.93;;;;;;;4.20;97.44;99815.91;5049065;28;20032;-70
2020/12/11 01:04:54;;;;;;;21.05;14.38;;;;;;;4.28;97.72;99834.78;5050319;28;20029;-71
2020/12/11 01:07:19;;;;;;;19.90;13.35;;;;;;;4.28;97.59;99829.47;5049002;28;20020;-70
2020/12/11 01:09:45;;;;;;;18.60;12.93;;;;;;;4.15;97.52;99810.91;5050389;28;20021;-70
2020/12/11 01:12:10;;;;;;;21.08;13.40;;;;;;;4.27;97.33;99835.75;5050341;28;20070;-70
2020/12/11 01:14:36;;;;;;;22.90;13.95;;;;;;;4.22;97.55;99824.59;5038154;28;20052;-70
2020/12/11 01:17:01;;;;;;;22.02;13.90;;;;;;;4.39;97.26;99850.81;5028889;28;20128;-70
2020/12/11 01:19:27;;;;;;;19.92;13.43;;;;;;;4.37;97.10;99850.06;5030315;28;20036;-70
2020/12/11 01:21:52;;;;;;;21.17;14.32;;;;;;;4.37;97.22;99848.28;5029039;28;20052;-71
2020/12/11 01:24:18;;;;;;;22.33;14.48;;;;;;;4.20;97.43;99824.69;5029121;28;20029;-70
2020/12/11 01:26:46;;;;;;;20.98;14.50;;;;;;;4.23;97.47;99835.09;5030393;28;20047;-71
2020/12/11 01:29:12;;;;;;;24.80;15.45;;;;;;;4.24;97.82;99835.97;5030106;28;20026;-71
2020/12/11 01:31:37;;;;;;;22.05;14.68;;;;;;;4.37;97.60;99850.06;5030804;28;20049;-70
2020/12/11 01:34:03;;;;;;;21.88;15.30;;;;;;;4.27;97.70;99836.59;5048563;28;20039;-70
2020/12/11 01:36:28;;;;;;;21.77;14.65;;;;;;;4.27;97.96;99838.41;5050096;28;20057;-70
2020/12/11 01:38:54;;;;;;;23.80;15.25;;;;;;;4.33;97.59;99840.63;5048469;28;20492;-70
2020/12/11 01:41:21;;;;;;;21.95;14.70;;;;;;;4.20;96.92;99826.53;5049796;28;20025;-70
2020/12/11 01:43:46;;;;;;;24.17;16.55;;;;;;;4.24;97.32;99834.16;5048583;28;20029;-70
2020/12/11 01:46:16;;;;;;;24.17;16.65;;;;;;;4.24;97.53;99836.81;5050060;28;20060;-70
2020/12/11 01:48:43;;;;;;;23.88;16.42;;;;;;;4.31;97.77;99850.50;5049997;28;20434;-70
2020/12/11 01:51:09;;;;;;;25.38;16.60;;;;;;;4.15;97.57;99823.31;5048988;28;20074;-70
2020/12/11 01:53:35;;;;;;;25.00;16.92;;;;;;;4.29;97.13;99847.94;5049763;28;20048;-70
2020/12/11 01:56:05;;;;;;;23.45;16.67;;;;;;;4.34;97.40;99863.56;5049865;28;20368;-70
2020/12/11 01:58:36;;;;;;;23.75;16.23;;;;;;;4.29;97.71;99852.44;5049694;28;20056;-71
2020/12/11 02:01:02;;;;;;;24.50;16.55;;;;;;;4.27;97.53;99856.97;5053932;28;20032;-70
2020/12/11 02:03:29;;;;;;;23.08;16.20;;;;;;;4.22;97.63;99849.34;5052435;28;20111;-70
2020/12/11 02:05:54;;;;;;;24.60;15.80;;;;;;;4.32;97.48;99868.13;5052763;28;20025;-70
2020/12/11 02:08:20;;;;;;;24.30;16.20;;;;;;;4.31;97.67;99856.66;5053403;28;20033;-70
2020/12/11 02:10:46;;;;;;;23.30;14.90;;;;;;;4.33;97.53;99869.81;5052300;28;20111;-70
2020/12/11 02:13:12;;;;;;;25.55;17.40;;;;;;;4.23;97.84;99853.69;5052251;28;20502;-70
2020/12/11 02:15:40;;;;;;;23.15;16.15;;;;;;;4.28;98.12;99869.28;5053663;28;20029;-70
2020/12/11 02:18:05;;;;;;;24.83;16.92;;;;;;;4.17;98.32;99847.97;5053310;28;20033;-70
2020/12/11 02:20:31;;;;;;;22.00;15.50;;;;;;;4.10;98.22;99839.56;5053456;28;20038;-71
2020/12/11 02:22:57;;;;;;;23.60;15.75;;;;;;;4.07;98.36;99828.31;5052195;28;20021;-70
2020/12/11 02:25:22;;;;;;;24.02;16.42;;;;;;;4.14;98.53;99846.38;5053234;28;20032;-70
2020/12/11 02:27:48;;;;;;;22.00;15.20;;;;;;;4.01;98.58;99829.59;5053268;28;20472;-70
2020/12/11 02:30:15;;;;;;;24.67;16.13;;;;;;;4.22;98.78;99864.41;5053294;28;20117;-70
2020/12/11 02:32:41;;;;;;;24.10;17.30;;;;;;;4.13;98.89;99841.19;5053560;28;20494;-70
2020/12/11 02:35:07;;;;;;;25.05;16.88;;;;;;;4.19;98.86;99852.19;5053171;28;20029;-70
2020/12/11 02:37:32;;;;;;;27.33;17.60;;;;;;;4.21;98.60;99852.09;5052596;28;20029;-70
2020/12/11 02:39:58;;;;;;;23.42;16.50;;;;;;;4.04;98.70;99821.44;5053005;28;20032;-70
2020/12/11 02:42:23;;;;;;;25.98;18.27;;;;;;;4.03;98.56;99818.88;5051768;28;20021;-70
2020/12/11 02:44:49;;;;;;;26.40;17.98;;;;;;;4.17;98.52;99842.66;5053091;28;20094;-71
2020/12/11 02:47:15;;;;;;;24.15;17.50;;;;;;;4.16;98.83;99847.09;5052947;28;20462;-70
2020/12/11 02:49:40;;;;;;;25.55;17.92;;;;;;;4.07;99.07;99825.66;5052914;28;20036;-70
2020/12/11 02:52:06;;;;;;;27.10;19.10;;;;;;;4.17;98.99;99829.38;5053023;28;20063;-71
2020/12/11 02:54:31;;;;;;;27.35;17.55;;;;;;;4.17;98.78;99840.00;5052787;28;20309;-70
2020/12/11 02:56:57;;;;;;;29.52;18.35;;;;;;;4.11;99.09;99829.81;5033656;28;20057;-70
2020/12/11 02:59:22;;;;;;;26.38;18.55;;;;;;;4.04;99.13;99815.28;5033090;28;20104;-71
2020/12/11 03:01:48;;;;;;;26.75;18.17;;;;;;;4.06;99.05;99816.84;5031735;28;20132;-70
2020/12/11 03:04:13;;;;;;;26.23;18.13;;;;;;;4.10;99.18;99815.69;5032791;28;20481;-70
2020/12/11 03:06:39;;;;;;;29.17;19.08;;;;;;;4.05;99.33;99806.34;5031422;28;20480;-70
2020/12/11 03:09:04;;;;;;;27.98;19.25;;;;;;;4.01;98.92;99810.19;5032623;28;20472;-70
2020/12/11 03:11:30;;;;;;;27.17;18.50;;;;;;;4.10;99.00;99814.84;5030706;28;20052;-70
2020/12/11 03:13:56;;;;;;;25.13;16.92;;;;;;;3.84;99.09;99768.88;5032638;28;20116;-70
2020/12/11 03:16:21;;;;;;;25.67;17.90;;;;;;;3.96;99.11;99793.72;5031537;28;20480;-70
2020/12/11 03:18:48;;;;;;;24.98;16.80;;;;;;;4.02;99.50;99804.75;5032502;28;20038;-70
2020/12/11 03:21:14;;;;;;;25.20;17.10;;;;;;;4.12;99.28;99823.53;5031187;28;20025;-70
2020/12/11 03:23:39;;;;;;;27.60;18.20;;;;;;;4.11;99.07;99821.84;5032545;28;20537;-70
2020/12/11 03:26:05;;;;;;;27.08;17.60;;;;;;;3.88;99.41;99788.97;5065343;28;20120;-70
2020/12/11 03:28:31;;;;;;;30.50;18.38;;;;;;;4.09;99.86;99816.66;5052247;28;20074;-70
2020/12/11 03:30:57;;;;;;;27.15;18.35;;;;;;;3.98;100.00;99797.13;5050983;28;20480;-70
2020/12/11 03:33:23;;;;;;;28.92;17.92;;;;;;;3.97;100.00;99798.91;5051980;28;20023;-71
2020/12/11 03:35:48;;;;;;;27.10;18.75;;;;;;;4.09;99.94;99829.91;5032469;28;20025;-71
2020/12/11 03:38:14;;;;;;;26.05;18.33;;;;;;;3.88;99.30;99796.06;5030474;28;20415;-70
2020/12/11 03:40:39;;;;;;;26.77;17.90;;;;;;;4.00;99.58;99819.09;5045904;28;20518;-70
2020/12/11 03:43:05;;;;;;;30.58;19.27;;;;;;;3.98;99.17;99808.59;5050651;28;20317;-70
2020/12/11 03:45:30;;;;;;;27.02;17.67;;;;;;;3.93;99.26;99801.88;5051970;28;20502;-70
2020/12/11 03:47:56;;;;;;;27.45;18.08;;;;;;;3.99;99.30;99812.94;5051891;28;20469;-70
2020/12/11 03:50:21;;;;;;;27.00;17.90;;;;;;;4.00;98.73;99795.22;5050501;28;20483;-70
2020/12/11 03:52:47;;;;;;;27.25;18.17;;;;;;;4.04;98.65;99805.53;5051986;28;20036;-71
2020/12/11 03:55:12;;;;;;;27.95;18.98;;;;;;;3.98;98.79;99790.03;5050286;28;20036;-71
2020/12/11 03:57:38;;;;;;;25.92;17.50;;;;;;;4.04;99.23;99809.97;5050327;28;20086;-70
2020/12/11 04:00:04;;;;;;;28.95;18.00;;;;;;;4.06;99.46;99803.59;5051560;28;20028;-70
2020/12/11 04:02:30;;;;;;;29.38;18.80;;;;;;;3.81;99.42;99758.50;5050363;28;20079;-70
2020/12/11 04:04:55;;;;;;;29.23;18.27;;;;;;;3.90;99.68;99773.78;5050278;28;20033;-70
2020/12/11 04:07:21;;;;;;;27.52;17.92;;;;;;;4.08;99.37;99806.13;5051559;28;20099;-70
2020/12/11 04:09:46;;;;;;;26.73;18.45;;;;;;;3.96;99.96;99793.72;5051704;28;20078;-70
2020/12/11 04:12:11;;;;;;;31.58;20.15;;;;;;;3.99;100.00;99796.16;5045394;28;20026;-71
2020/12/11 04:14:37;;;;;;;28.70;19.58;;;;;;;3.85;100.00;99778.56;5042211;28;20029;-70
2020/12/11 04:17:02;;;;;;;28.70;19.02;;;;;;;3.90;100.00;99797.66;5051198;28;20040;-71
2020/12/11 04:19:28;;;;;;;27.75;17.77;;;;;;;3.93;100.00;99807.19;5051080;28;20033;-70
2020/12/11 04:21:54;;;;;;;28.88;18.80;;;;;;;4.02;100.00;99814.50;5050320;28;20025;-70
2020/12/11 04:24:23;;;;;;;30.80;18.10;;;;;;;3.97;100.00;99809.53;5049749;28;20438;-70
2020/12/11 04:26:48;;;;;;;29.65;19.27;;;;;;;3.88;100.00;99801.38;5049996;28;20052;-70
2020/12/11 04:29:14;;;;;;;27.05;18.98;;;;;;;3.91;100.00;99809.13;5051040;28;20089;-70
2020/12/11 04:31:40;;;;;;;27.15;17.25;;;;;;;3.86;100.00;99790.00;5051038;28;20514;-70
2020/12/11 04:34:06;;;;;;;27.88;17.77;;;;;;;3.99;100.00;99818.25;5050891;28;20028;-70
2020/12/11 04:36:32;;;;;;;25.30;17.50;;;;;;;3.99;100.00;99814.72;5051402;28;20111;-70
2020/12/11 04:38:57;;;;;;;26.85;17.92;;;;;;;3.97;99.99;99814.00;5050568;28;20072;-70
2020/12/11 04:41:28;;;;;;;27.60;19.25;;;;;;;3.99;99.88;99817.38;5034683;28;20087;-70
2020/12/11 04:43:56;;;;;;;25.25;17.88;;;;;;;3.95;99.66;99797.31;5048760;28;20112;-70
2020/12/11 04:46:28;;;;;;;26.88;17.65;;;;;;;4.01;99.38;99803.06;5042107;28;20479;-70
2020/12/11 04:48:58;;;;;;;26.77;17.63;;;;;;;4.13;99.47;99817.28;5039844;28;20041;-70
2020/12/11 04:51:24;;;;;;;32.35;19.58;;;;;;;3.98;99.36;99795.31;5038255;28;20525;-70
2020/12/11 04:53:53;;;;;;;29.02;19.00;;;;;;;3.91;99.51;99795.84;5044927;28;20495;-70
2020/12/11 04:56:21;;;;;;;28.40;18.83;;;;;;;4.07;99.47;99829.16;5043405;28;20495;-70
2020/12/11 04:58:50;;;;;;;29.15;18.33;;;;;;;4.10;99.79;99836.06;5036077;28;20075;-70
2020/12/11 05:01:32;;;;;;;28.85;18.35;;;;;;;3.99;99.63;99822.69;5042127;28;20530;-71
2020/12/11 05:03:59;;;;;;;29.05;20.15;;;;;;;4.00;100.00;99819.09;5063289;28;20029;-70
2020/12/11 05:06:26;;;;;;;32.42;20.17;;;;;;;3.90;100.00;99796.81;5038475;28;20476;-71
2020/12/11 05:09:11;;;;;;;29.65;19.27;;;;;;;4.08;100.00;99827.38;5039991;28;20024;-71
2020/12/11 05:11:37;;;;;;;28.92;19.25;;;;;;;4.09;100.00;99821.09;5040686;28;20534;-70
2020/12/11 05:14:03;;;;;;;32.10;20.60;;;;;;;3.99;99.70;99801.47;5035464;28;20450;-70
2020/12/11 05:16:28;;;;;;;33.15;20.77;;;;;;;4.03;100.00;99808.28;5035027;28;20018;-71
2020/12/11 05:19:04;;;;;;;29.08;20.17;;;;;;;4.00;99.92;99804.00;5043833;28;20427;-70
2020/12/11 05:21:32;;;;;;;30.63;20.05;;;;;;;3.97;100.00;99806.03;5040270;28;20108;-70
2020/12/11 05:24:04;;;;;;;32.72;21.33;;;;;;;4.06;100.00;99822.16;5043000;28;20116;-71
2020/12/11 05:26:32;;;;;;;34.30;20.48;;;;;;;4.05;100.00;99822.25;5035238;28;20087;-70
2020/12/11 05:28:58;;;;;;;29.27;19.20;;;;;;;4.05;100.00;99820.47;5044223;28;20025;-71
2020/12/11 05:31:25;;;;;;;30.33;19.42;;;;;;;4.05;100.00;99828.44;5037939;28;20185;-70
2020/12/11 05:34:14;;;;;;;32.00;19.30;;;;;;;4.08;100.00;99835.31;5040234;28;20094;-70
2020/12/11 05:36:43;;;;;;;31.02;18.80;;;;;;;4.05;100.00;99817.81;5064999;28;20037;-70
2020/12/11 05:39:08;;;;;;;33.47;20.88;;;;;;;3.89;100.00;99797.75;5055042;28;20070;-71
2020/12/11 05:41:35;;;;;;;32.20;20.02;;;;;;;4.03;100.00;99824.19;5039606;28;20483;-70
2020/12/11 05:44:01;;;;;;;30.40;18.88;;;;;;;3.88;100.00;99796.06;5033604;28;20399;-71
2020/12/11 05:46:31;;;;;;;30.05;20.00;;;;;;;3.82;100.00;99788.53;5038057;28;20095;-71
2020/12/11 05:48:57;;;;;;;27.90;18.88;;;;;;;3.83;100.00;99784.91;5029882;28;20030;-71
2020/12/11 05:51:25;;;;;;;29.08;19.10;;;;;;;3.77;100.00;99777.41;5032220;28;20170;-70
2020/12/11 05:53:52;;;;;;;32.40;19.95;;;;;;;3.97;100.00;99814.81;5045337;28;20029;-71
2020/12/11 05:56:21;;;;;;;29.70;19.70;;;;;;;3.75;100.00;99782.81;5033797;28;20029;-71
2020/12/11 05:58:51;;;;;;;31.88;20.30;;;;;;;3.77;100.00;99780.06;5041023;28;20036;-70
2020/12/11 06:01:18;;;;;;;31.83;19.35;;;;;;;3.92;100.00;99805.50;5033676;28;20443;-70
2020/12/11 06:03:45;;;;;;;32.47;20.60;;;;;;;3.88;100.00;99788.09;5042529;28;20022;-70
2020/12/11 06:06:14;;;;;;;34.03;20.95;;;;;;;3.95;100.00;99808.81;5063213;28;20379;-71
2020/12/11 06:08:43;;;;;;;33.03;20.67;;;;;;;3.80;100.00;99796.59;5037606;28;20476;-70
2020/12/11 06:11:21;;;;;;;32.85;19.95;;;;;;;3.74;100.00;99790.88;5029758;28;20025;-71
2020/12/11 06:13:56;;;;;;;34.60;20.70;;;;;;;3.75;100.00;99800.50;5046636;28;20032;-71
2020/12/11 06:16:23;;;;;;;35.05;21.95;;;;;;;3.80;100.00;99803.69;5049718;28;20021;-71
2020/12/11 06:19:00;;;;;;;30.50;20.27;;;;;;;3.72;100.00;99788.31;5047915;28;20420;-70
2020/12/11 06:21:27;;;;;;;31.60;21.00;;;;;;;3.75;100.00;99790.75;5049952;28;20044;-71
2020/12/11 06:23:53;;;;;;;33.00;20.50;;;;;;;3.70;100.00;99784.03;5034515;28;20510;-70
2020/12/11 06:26:18;;;;;;;31.45;20.27;;;;;;;3.64;100.00;99779.19;5028193;28;20021;-70
2020/12/11 06:28:50;;;;;;;30.05;19.95;;;;;;;3.87;100.00;99818.25;5028793;28;20380;-70
2020/12/11 06:31:17;;;;;;;33.22;20.35;;;;;;;3.71;100.00;99794.56;5029319;28;20021;-70
2020/12/11 06:33:46;;;;;;;32.33;21.10;;;;;;;3.64;100.00;99782.66;5028237;28;20034;-70
2020/12/11 06:36:12;;;;;;;31.63;20.02;;;;;;;3.88;100.00;99818.13;5032254;28;20056;-71
2020/12/11 06:38:42;;;;;;;30.30;19.05;;;;;;;3.82;100.00;99799.13;5047956;28;20111;-71
2020/12/11 06:41:08;;;;;;;31.92;20.75;;;;;;;3.89;100.00;99809.22;5047942;28;20029;-71
2020/12/11 06:43:42;;;;;;;30.80;20.55;;;;;;;3.76;100.00;99795.09;5031001;28;20021;-71
2020/12/11 06:46:15;;;;;;;35.83;21.15;;;;;;;3.77;100.00;99803.91;5031552;28;20033;-70
2020/12/11 06:49:17;;;;;;;31.42;20.05;;;;;;;3.88;100.00;99818.13;5031711;28;20029;-70
2020/12/11 06:51:42;;;;;;;33.53;20.27;;;;;;;3.91;100.00;99830.34;5052040;28;20060;-70
2020/12/11 06:54:08;;;;;;;35.10;20.92;;;;;;;3.91;100.00;99833.84;5052834;28;20059;-71
2020/12/11 06:56:57;;;;;;;35.22;21.98;;;;;;;3.89;100.00;99821.63;5051480;28;20032;-71
2020/12/11 06:59:27;;;;;;;37.67;21.30;;;;;;;3.88;100.00;99827.88;5047261;28;20049;-70
2020/12/11 07:01:55;;;;;;;38.83;21.92;;;;;;;3.82;100.00;99817.69;5051440;28;20035;-71
2020/12/11 07:04:20;;;;;;;36.60;21.17;;;;;;;3.77;100.00;99804.75;5052619;28;20475;-70
2020/12/11 07:06:48;;;;;;;38.60;22.88;;;;;;;3.82;100.00;99801.78;5052502;28;20028;-70
2020/12/11 07:09:14;;;;;;;37.83;22.30;;;;;;;3.79;100.00;99794.03;5051428;28;20116;-70
2020/12/11 07:11:40;;;;;;;34.33;20.80;;;;;;;3.93;100.00;99815.16;5051147;28;20033;-71
2020/12/11 07:14:05;;;;;;;38.35;22.33;;;;;;;3.82;100.00;99796.47;5052572;28;20590;-70
2020/12/11 07:16:38;;;;;;;36.22;23.08;;;;;;;3.95;100.00;99807.94;5052901;28;20059;-71
2020/12/11 07:19:04;;;;;;;38.35;22.90;;;;;;;3.93;100.00;99799.22;5051301;28;20048;-71
2020/12/11 07:21:32;;;;;;;37.28;21.98;;;;;;;4.08;100.00;99822.91;5052108;28;20067;-71
2020/12/11 07:23:58;;;;;;;35.92;21.77;;;;;;;3.81;100.00;99785.00;5051254;28;20060;-71
2020/12/11 07:26:23;;;;;;;34.85;21.40;;;;;;;3.98;100.00;99802.44;5052364;28;20150;-71
2020/12/11 07:29:04;;;;;;;33.65;22.42;;;;;;;3.98;100.00;99805.94;5050990;28;20067;-71
2020/12/11 07:31:33;;;;;;;35.78;21.23;;;;;;;3.87;100.00;99792.53;5052255;28;20035;-71
2020/12/11 07:34:00;;;;;;;32.08;19.88;;;;;;;3.87;100.00;99791.72;5052070;28;20028;-71
2020/12/11 07:36:27;;;;;;;33.35;20.65;;;;;;;3.82;100.00;99786.72;5050948;28;20035;-70
2020/12/11 07:38:52;;;;;;;36.25;20.48;;;;;;;4.09;100.00;99821.94;5051974;28;20553;-71
2020/12/11 07:41:18;;;;;;;36.95;23.08;;;;;;;4.02;100.00;99795.94;5052244;28;20052;-71
2020/12/11 07:43:48;;;;;;;38.05;24.20;;;;;;;4.10;100.00;99802.41;5050713;28;20519;-71
2020/12/11 07:46:22;;;;;;;42.90;24.67;;;;;;;4.13;100.00;99796.06;5051787;28;20387;-71
2020/12/11 07:48:49;;;;;;;33.15;21.45;;;;;;;4.01;100.00;99775.69;5042599;28;20083;-71
2020/12/11 07:51:16;;;;;;;33.08;20.40;;;;;;;3.98;100.00;99770.59;5031820;28;20022;-71
2020/12/11 07:53:50;;;;;;;35.33;21.58;;;;;;;4.16;99.99;99791.38;5031813;28;20029;-70
2020/12/11 07:56:15;;;;;;;;;;;;;;;4.30;99.34;99811.66;5030982;28;20065;-71
2020/12/11 07:58:41;;;;;;;31.00;18.27;;;;;;;4.29;99.23;99800.16;5030446;28;19971;-70
2020/12/11 08:01:06;;;;;;;32.22;19.25;;;;;;;4.27;99.26;99802.09;5030517;28;20028;-71
2020/12/11 08:03:33;;;;;;;22.70;14.55;;;;;;;4.27;98.58;99785.31;5031651;28;20044;-71
2020/12/11 08:05:58;;;;;;;14.40;9.13;;;;;;;4.44;97.06;99815.03;5049227;28;20064;-71
2020/12/11 08:08:27;;;;;;;11.20;7.85;;;;;;;4.39;95.21;99805.69;5051291;28;20052;-71
2020/12/11 08:10:53;;;;;;;12.88;8.68;;;;;;;4.52;94.12;99822.47;5051330;28;20103;-71
2020/12/11 08:13:21;;;;;;;14.60;9.40;;;;;;;4.44;93.50;99799.09;5051383;28;20111;-71
2020/12/11 08:15:46;;;;;;;14.98;9.45;;;;;;;4.47;93.19;99798.88;5049840;28;20029;-71
2020/12/11 08:18:20;;;;;;;14.13;9.45;;;;;;;4.64;92.78;99817.09;5049759;28;20025;-71
2020/12/11 08:20:56;;;;;;;15.45;10.02;;;;;;;4.49;92.04;99799.59;5051176;28;20056;-71
2020/12/11 08:23:42;;;;;;;9.95;7.03;;;;;;;4.42;91.81;99793.03;5051324;28;20031;-71
2020/12/11 08:26:09;;;;;;;9.45;6.75;;;;;;;4.51;91.18;99804.81;5050846;28;20094;-71
2020/12/11 08:28:35;;;;;;;9.70;6.70;;;;;;;4.53;91.35;99819.69;5051051;28;20017;-71
2020/12/11 08:31:20;;;;;;;9.55;5.82;;;;;;;4.68;89.38;99836.34;5042515;28;20041;-71
2020/12/11 08:34:14;;;;;;;8.98;5.75;;;;;;;4.64;88.81;99845.47;5049146;28;20025;-71
2020/12/11 08:36:42;;;;;;;7.87;5.27;;;;;;;4.49;89.19;99820.00;5050901;28;20017;-71
2020/12/11 08:39:25;;;;;;;8.57;5.85;;;;;;;4.57;89.27;99828.28;5040302;28;20286;-71
2020/12/11 08:49:55;;;;;;;18.30;11.65;;;;;;;4.42;90.53;99808.97;5049779;28;20048;-70
2020/12/11 08:52:20;;;;;;;17.75;11.30;;;;;;;4.47;91.54;99813.94;5043944;28;20064;-71
2020/12/11 08:54:47;;;;;;;17.13;11.05;;;;;;;4.60;91.95;99828.91;5045684;28;20465;-70
2020/12/11 08:57:13;;;;;;;15.52;10.70;;;;;;;4.43;91.84;99796.56;5039773;28;20033;-70
2020/12/11 08:59:39;;;;;;;18.52;11.85;;;;;;;4.66;91.57;99831.13;5037850;28;20036;-71
2020/12/11 09:02:04;;;;;;;16.45;12.02;;;;;;;4.59;91.19;99810.44;5038013;28;20401;-71
2020/12/11 09:04:30;;;;;;;18.95;12.18;;;;;;;4.63;90.91;99820.72;5045141;28;20082;-71
2020/12/11 09:06:55;;;;;;;16.25;11.20;;;;;;;4.59;90.59;99797.16;5041341;28;20060;-71
2020/12/11 09:09:22;;;;;;;17.60;11.63;;;;;;;4.68;89.96;99810.59;5045949;28;20090;-70
2020/12/11 09:11:49;;;;;;;17.75;11.50;;;;;;;4.73;90.16;99812.94;5047710;28;20037;-71
2020/12/11 09:14:15;;;;;;;17.35;11.68;;;;;;;4.80;90.00;99819.50;5030916;28;20057;-71
2020/12/11 09:16:40;;;;;;;16.15;11.23;;;;;;;4.68;90.37;99805.28;5029619;28;20472;-71
2020/12/11 09:19:06;;;;;;;15.63;10.30;;;;;;;4.82;89.50;99817.59;5041116;28;20037;-72
2020/12/11 09:21:32;;;;;;;13.40;10.07;;;;;;;4.82;88.87;99814.06;5050097;28;20029;-71
2020/12/11 09:23:57;;;;;;;15.55;10.85;;;;;;;4.68;89.33;99792.03;5046373;28;20117;-71
2020/12/11 09:26:26;;;;;;;14.10;9.77;;;;;;;4.60;89.15;99761.66;5028778;28;20037;-71
2020/12/11 09:29:09;;;;;;;14.13;9.07;;;;;;;4.84;89.03;99791.78;5028816;28;20040;-71
2020/12/11 09:31:36;;;;;;;15.30;8.90;;;;;;;4.86;89.18;99789.84;5047280;28;20040;-71
2020/12/11 09:34:02;;;;;;;14.38;10.40;;;;;;;4.70;89.20;99762.69;5050102;28;20029;-71
2020/12/11 09:36:27;;;;;;;12.60;9.40;;;;;;;4.87;89.32;99790.69;5049343;28;20033;-71
2020/12/11 09:38:53;;;;;;;15.82;10.55;;;;;;;4.82;90.19;99775.09;5049306;28;20048;-70
2020/12/11 09:41:26;;;;;;;15.68;10.75;;;;;;;4.91;89.81;99778.88;5049566;28;20039;-71
2020/12/11 09:50:12;;;;;;;13.35;9.27;;;;;;;4.84;87.96;99749.28;5048441;28;20561;-71
2020/12/11 09:54:56;;;;;;;12.57;8.82;;;;;;;5.01;86.80;99770.13;5050110;28;20032;-71
2020/12/11 09:57:21;;;;;;;10.85;8.10;;;;;;;5.06;87.18;99789.22;5040682;28;20029;-71
2020/12/11 09:59:52;;;;;;;11.50;7.95;;;;;;;5.08;86.75;99773.16;5048321;28;20472;-71
2020/12/11 10:02:37;;;;;;;11.07;7.70;;;;;;;5.12;86.64;99778.13;5049751;28;20029;-71
2020/12/11 10:05:04;;;;;;;10.63;7.55;;;;;;;5.09;87.09;99766.91;5049927;28;20029;-71
2020/12/11 10:07:29;;;;;;;11.43;8.18;;;;;;;4.93;87.64;99745.91;5049554;28;20028;-71
2020/12/11 10:09:55;;;;;;;10.48;7.60;;;;;;;4.99;87.07;99747.28;5049772;28;20025;-71
2020/12/11 10:12:26;;;;;;;12.32;8.70;;;;;;;4.93;86.69;99737.13;5049402;28;20111;-71
2020/12/11 10:14:57;;;;;;;11.30;8.48;;;;;;;4.98;86.96;99745.56;5048335;28;20033;-70
2020/12/11 10:17:23;;;;;;;13.40;8.95;;;;;;;4.94;87.39;99738.81;5049398;28;20029;-71
2020/12/11 10:19:48;;;;;;;13.23;9.02;;;;;;;5.10;87.80;99760.63;5049769;28;20029;-71
2020/12/11 10:22:14;;;;;;;13.70;9.80;;;;;;;5.01;87.79;99740.91;5053460;28;20029;-70
2020/12/11 10:24:39;;;;;;;13.68;9.82;;;;;;;5.14;87.36;99754.09;5053851;28;20040;-71
2020/12/11 10:27:05;;;;;;;16.33;10.82;;;;;;;5.05;87.75;99731.72;5052241;28;20067;-71
2020/12/11 10:29:31;;;;;;;20.20;13.10;;;;;;;5.16;86.61;99747.72;5052199;28;20513;-71
2020/12/11 10:31:56;;;;;;;19.00;12.05;;;;;;;5.14;87.01;99744.34;5032589;28;20017;-71
2020/12/11 10:34:22;;;;;;;18.80;11.90;;;;;;;5.03;87.23;99732.81;5048258;28;20049;-71
2020/12/11 10:36:47;;;;;;;17.60;12.52;;;;;;;5.16;87.17;99754.84;5051011;28;20020;-71
2020/12/11 10:39:13;;;;;;;17.73;12.88;;;;;;;5.11;87.83;99736.59;5052547;28;20053;-71
2020/12/11 10:41:39;;;;;;;18.42;11.75;;;;;;;5.16;87.81;99745.03;5052893;28;20403;-71
2020/12/11 10:44:06;;;;;;;17.70;12.00;;;;;;;5.11;87.06;99730.41;5051922;28;20123;-71
2020/12/11 10:46:31;;;;;;;17.70;13.00;;;;;;;4.94;86.93;99694.50;5040152;28;20418;-71
2020/12/11 10:48:57;;;;;;;16.60;11.15;;;;;;;5.14;86.55;99725.72;5035678;28;20029;-71
2020/12/11 10:51:24;;;;;;;16.08;10.85;;;;;;;5.03;86.94;99715.03;5031515;28;20029;-71
2020/12/11 10:53:49;;;;;;;15.05;10.82;;;;;;;5.13;87.07;99736.47;5032861;28;20423;-71
2020/12/11 10:56:19;;;;;;;15.68;10.30;;;;;;;5.16;87.53;99744.22;5041027;28;20017;-71
2020/12/11 10:58:44;;;;;;;15.25;10.73;;;;;;;5.03;87.33;99720.34;5052768;28;20108;-71
2020/12/11 11:01:10;;;;;;;17.02;11.13;;;;;;;4.97;87.26;99707.56;5036372;28;20474;-70
2020/12/11 11:03:36;;;;;;;16.63;11.63;;;;;;;5.11;87.29;99725.09;5031232;28;20021;-71
2020/12/11 11:11:07;;;;;;;14.35;10.27;;;;;;;5.13;86.93;99712.56;5034140;28;20045;-70
2020/12/11 11:16:02;;;;;;;15.88;11.90;;;;;;;5.02;87.09;99688.56;5050107;28;20063;-70
2020/12/11 11:28:54;;;;;;;19.23;11.65;;;;;;;4.96;88.38;99663.31;5037689;28;20033;-70
2020/12/11 11:31:22;;;;;;;17.90;12.15;;;;;;;5.04;88.68;99671.59;5046365;28;20431;-71
2020/12/11 11:33:47;;;;;;;19.27;11.95;;;;;;;4.97;88.50;99651.75;5040579;28;20543;-70
2020/12/11 11:36:13;;;;;;;19.30;11.45;;;;;;;5.07;88.53;99655.41;5040365;28;20120;-70
2020/12/11 11:38:38;;;;;;;16.98;11.23;;;;;;;4.99;88.68;99636.53;5040253;28;20459;-70
2020/12/11 11:41:04;;;;;;;17.20;12.25;;;;;;;4.82;88.90;99598.91;5051619;28;20349;-71
2020/12/11 11:44:14;;;;;;;18.80;12.15;;;;;;;5.13;88.86;99651.44;5051955;28;20056;-71
2020/12/11 11:46:15;;;;;;;18.48;11.40;;;;;;;5.16;88.76;99648.53;5052087;28;20597;-70
2020/12/11 11:48:43;;;;;;;19.95;11.55;;;;;;;5.07;88.26;99635.94;5052170;28;20017;-71
2020/12/11 11:51:20;;;;;;;15.30;10.88;;;;;;;5.10;87.95;99633.06;5050725;28;20035;-71
2020/12/11 11:53:47;;;;;;;14.93;10.95;;;;;;;5.20;87.23;99644.69;5048100;28;20017;-71
2020/12/11 11:56:19;;;;;;;17.00;11.90;;;;;;;5.12;87.32;99625.81;5040816;28;20044;-71
2020/12/11 11:58:46;;;;;;;15.55;10.30;;;;;;;5.05;87.09;99612.16;5043263;28;20029;-71
2020/12/11 12:01:16;;;;;;;14.00;9.82;;;;;;;5.21;87.10;99633.94;5048154;28;20510;-71